Time;durP1;ratioP1;P1;durP2;ratioP2;P2;SDS_P1;SDS_P2;PMS_P1;PMS_P2;Temp;Humidity;BMP_temperature;BMP_pressure;BME280_temperature;BME280_humidity;BME280_pressure;Samples;Min_cycle;Max_cycle;Signal;HPM_P1;HPM_P2
2021/07/19 00:00:00;;;;;;;4.82;4.40;;;;;;;19.61;68.99;99269.09;3545938;40;20400;-72
2021/07/19 00:02:28;;;;;;;4.93;4.30;;;;;;;19.56;68.88;99264.47;3546664;40;20055;-71
2021/07/19 00:04:56;;;;;;;7.15;4.38;;;;;;;19.54;69.16;99263.88;3546374;40;20078;-72
2021/07/19 00:07:24;;;;;;;5.65;4.68;;;;;;;19.53;69.14;99263.06;3547177;40;20046;-72
2021/07/19 00:09:51;;;;;;;6.03;4.53;;;;;;;19.51;69.45;99265.19;3545948;40;20083;-72
2021/07/19 00:12:21;;;;;;;6.40;4.38;;;;;;;19.50;69.52;99270.78;3545036;40;20129;-72
2021/07/19 00:14:49;;;;;;;5.28;4.13;;;;;;;19.53;69.28;99264.94;3544885;40;20058;-72
2021/07/19 00:17:19;;;;;;;5.63;3.88;;;;;;;19.49;69.61;99261.91;3543991;40;20045;-71
2021/07/19 00:19:52;;;;;;;6.97;4.50;;;;;;;19.42;69.94;99263.91;3544049;40;20059;-71
2021/07/19 00:22:51;;;;;;;6.20;4.30;;;;;;;19.49;69.13;99261.91;3544517;40;20333;-70
2021/07/19 00:25:32;;;;;;;5.47;3.90;;;;;;;19.36;69.76;99270.25;3544168;40;20113;-71
2021/07/19 00:28:07;;;;;;;;;;;;;;;19.33;69.70;99261.88;3520138;40;20066;-70
2021/07/19 00:30:39;;;;;;;6.03;4.25;;;;;;;19.29;69.72;99265.00;3543857;40;19934;-72
2021/07/19 00:33:07;;;;;;;4.72;4.20;;;;;;;19.28;69.96;99266.06;3544015;40;20035;-71
2021/07/19 00:35:35;;;;;;;12.25;4.53;;;;;;;19.25;70.00;99255.81;3544239;40;20054;-71
2021/07/19 00:38:03;;;;;;;9.73;4.53;;;;;;;19.32;70.20;99260.25;3543810;40;20081;-71
2021/07/19 00:40:32;;;;;;;8.25;4.05;;;;;;;19.32;69.68;99263.75;3544310;40;20034;-71
2021/07/19 00:43:00;;;;;;;5.57;4.70;;;;;;;19.23;69.70;99262.50;3543493;40;20075;-72
2021/07/19 00:45:31;;;;;;;4.82;4.38;;;;;;;19.10;70.70;99262.72;3543756;40;20046;-73
2021/07/19 00:48:01;;;;;;;6.75;4.65;;;;;;;18.99;71.04;99261.72;3544175;40;20499;-71
2021/07/19 00:50:32;;;;;;;6.63;4.50;;;;;;;18.89;71.55;99258.81;3545567;40;20055;-73
2021/07/19 00:53:00;;;;;;;8.50;4.43;;;;;;;18.87;71.49;99259.06;3545647;40;20090;-72
2021/07/19 00:55:32;;;;;;;7.72;4.45;;;;;;;18.93;71.39;99258.09;3544014;40;20087;-71
2021/07/19 00:58:02;;;;;;;5.18;4.53;;;;;;;18.96;71.15;99260.31;3544048;40;20076;-73
2021/07/19 01:00:33;;;;;;;5.85;4.35;;;;;;;18.94;71.32;99254.41;3544056;40;20110;-72
2021/07/19 01:03:04;;;;;;;6.30;4.13;;;;;;;18.98;71.42;99260.06;3544200;40;20409;-73
2021/07/19 01:05:34;;;;;;;10.05;4.68;;;;;;;19.01;71.21;99259.63;3545131;40;20058;-73
2021/07/19 01:08:04;;;;;;;5.10;4.10;;;;;;;18.90;71.05;99257.75;3544979;40;20059;-71
2021/07/19 01:10:33;;;;;;;8.30;4.35;;;;;;;18.83;71.43;99263.25;3544395;40;20058;-70
2021/07/19 01:13:01;;;;;;;6.13;4.15;;;;;;;18.85;71.12;99252.31;3545244;40;20105;-72
2021/07/19 01:15:36;;;;;;;10.55;4.65;;;;;;;18.77;71.31;99254.28;3545241;40;20058;-72
2021/07/19 01:18:06;;;;;;;8.27;4.93;;;;;;;18.67;71.41;99255.91;3544908;40;20047;-75
2021/07/19 01:20:40;;;;;;;6.07;4.35;;;;;;;18.61;71.55;99256.84;3545046;40;20452;-71
2021/07/19 01:23:49;;;;;;;6.32;3.90;;;;;;;18.53;72.01;99245.44;3545831;40;20425;-72
2021/07/19 01:26:46;;;;;;;7.63;4.72;;;;;;;18.56;72.04;99246.84;3543829;40;20472;-71
2021/07/19 01:29:17;;;;;;;9.30;5.82;;;;;;;18.53;72.14;99249.97;3545182;40;20074;-71
2021/07/19 01:31:47;;;;;;;5.78;4.43;;;;;;;18.40;72.50;99248.34;3544612;40;20053;-71
2021/07/19 01:34:20;;;;;;;7.85;4.55;;;;;;;18.41;72.59;99246.47;3545071;40;20055;-71
2021/07/19 01:36:50;;;;;;;5.00;4.10;;;;;;;18.55;72.17;99245.22;3545458;40;20058;-70
2021/07/19 01:39:25;;;;;;;6.05;4.18;;;;;;;18.61;72.05;99238.91;3552508;40;20039;-71
2021/07/19 01:41:54;;;;;;;8.40;4.35;;;;;;;18.62;71.82;99245.09;3545783;40;20046;-71
2021/07/19 01:44:24;;;;;;;8.05;4.65;;;;;;;18.65;71.89;99248.09;3545328;40;20335;-72
2021/07/19 01:46:54;;;;;;;5.78;4.35;;;;;;;18.70;71.45;99242.09;3544606;40;20055;-72
2021/07/19 01:49:23;;;;;;;8.63;5.22;;;;;;;18.60;71.30;99244.50;3544644;40;20091;-71
2021/07/19 01:51:53;;;;;;;6.28;4.00;;;;;;;18.48;71.90;99239.97;3552336;40;20133;-71
2021/07/19 01:54:24;;;;;;;7.45;4.50;;;;;;;18.42;71.88;99248.94;3544781;40;20137;-71
2021/07/19 01:56:55;;;;;;;5.70;4.47;;;;;;;18.41;71.47;99251.81;3551222;40;20035;-72
2021/07/19 01:59:26;;;;;;;9.38;4.15;;;;;;;18.33;71.84;99250.34;3544167;40;20376;-72
2021/07/19 02:02:16;;;;;;;7.18;4.50;;;;;;;18.26;72.50;99244.28;3544170;40;20087;-72
2021/07/19 02:04:47;;;;;;;6.45;4.60;;;;;;;18.26;72.51;99247.75;3544564;40;20034;-70
2021/07/19 02:07:17;;;;;;;8.43;4.90;;;;;;;18.22;72.52;99245.78;3545520;40;20054;-71
2021/07/19 02:09:52;;;;;;;9.85;4.22;;;;;;;18.20;72.85;99247.88;3544090;40;20054;-71
2021/07/19 02:12:39;;;;;;;6.80;4.72;;;;;;;18.22;72.82;99249.28;3544875;40;20078;-71
2021/07/19 02:15:11;;;;;;;7.85;4.45;;;;;;;18.24;72.86;99241.00;3544064;40;20133;-73
2021/07/19 02:17:42;;;;;;;6.93;5.10;;;;;;;18.25;72.33;99248.00;3544016;40;20046;-71
2021/07/19 02:20:14;;;;;;;5.40;4.60;;;;;;;18.05;72.95;99254.50;3543194;40;20074;-71
2021/07/19 02:22:44;;;;;;;7.80;5.22;;;;;;;17.93;73.19;99245.63;3543478;40;20058;-72
2021/07/19 02:25:33;;;;;;;7.55;5.50;;;;;;;17.84;73.27;99249.69;3545290;40;20083;-72
2021/07/19 02:28:03;;;;;;;7.53;5.35;;;;;;;17.83;73.50;99246.16;3544399;40;20077;-71
2021/07/19 02:30:33;;;;;;;7.90;5.15;;;;;;;17.83;73.83;99250.69;3544074;40;20074;-71
2021/07/19 02:33:04;;;;;;;6.28;5.13;;;;;;;17.84;74.18;99255.03;3544344;40;20041;-71
2021/07/19 02:35:38;;;;;;;8.32;4.95;;;;;;;17.84;74.22;99252.34;3544279;40;20427;-71
2021/07/19 02:38:08;;;;;;;6.80;4.68;;;;;;;17.87;73.58;99251.06;3542985;40;20071;-74
2021/07/19 02:41:05;;;;;;;6.03;5.07;;;;;;;17.82;73.34;99252.56;3542785;40;20433;-71
2021/07/19 02:43:35;;;;;;;7.05;4.63;;;;;;;17.80;73.78;99257.34;3544600;40;20059;-72
2021/07/19 02:46:05;;;;;;;6.40;4.68;;;;;;;17.92;73.58;99259.22;3544485;40;20340;-70
2021/07/19 02:48:36;;;;;;;5.45;4.93;;;;;;;17.98;73.27;99263.66;3544305;40;20611;-71
2021/07/19 02:51:06;;;;;;;6.57;4.68;;;;;;;17.94;72.90;99263.28;3544171;40;20136;-70
2021/07/19 02:53:37;;;;;;;8.35;5.15;;;;;;;17.89;73.11;99265.84;3544170;40;20054;-71
2021/07/19 02:56:07;;;;;;;7.07;5.75;;;;;;;17.76;73.49;99264.19;3544792;40;20422;-72
2021/07/19 02:58:36;;;;;;;6.28;4.35;;;;;;;17.72;73.42;99262.97;3544790;40;20416;-71
2021/07/19 03:01:11;;;;;;;7.03;4.40;;;;;;;17.74;73.56;99260.91;3545351;40;20046;-70
2021/07/19 03:03:40;;;;;;;6.47;4.35;;;;;;;17.73;73.65;99253.91;3545752;40;20053;-70
2021/07/19 03:06:09;;;;;;;6.60;5.10;;;;;;;17.78;73.58;99251.38;3545136;40;20087;-71
2021/07/19 03:08:41;;;;;;;8.95;5.20;;;;;;;17.72;73.53;99257.63;3543551;40;20093;-69
2021/07/19 03:11:21;;;;;;;7.13;5.00;;;;;;;17.68;73.36;99261.00;3551759;40;20343;-70
2021/07/19 03:13:54;;;;;;;5.80;4.63;;;;;;;17.58;73.74;99261.53;3544754;40;20031;-70
2021/07/19 03:16:27;;;;;;;5.28;4.70;;;;;;;17.45;74.63;99251.03;3545223;40;20423;-70
2021/07/19 03:18:59;;;;;;;6.32;4.45;;;;;;;17.45;74.76;99245.66;3543812;40;20423;-70
2021/07/19 03:21:30;;;;;;;5.93;4.82;;;;;;;17.44;74.07;99246.72;3543100;40;20054;-70
2021/07/19 03:24:10;;;;;;;6.88;4.90;;;;;;;17.40;74.50;99250.88;3525578;40;20063;-70
2021/07/19 03:26:43;;;;;;;6.07;5.13;;;;;;;17.34;74.31;99250.72;3538994;40;20397;-70
2021/07/19 03:29:13;;;;;;;6.97;5.30;;;;;;;17.27;74.71;99243.88;3544105;40;20058;-70
2021/07/19 03:32:03;;;;;;;6.63;5.40;;;;;;;17.21;74.48;99250.09;3543528;40;20130;-70
2021/07/19 03:34:33;;;;;;;7.90;5.53;;;;;;;17.19;74.50;99254.84;3544074;40;20035;-71
2021/07/19 03:37:02;;;;;;;6.20;4.55;;;;;;;17.11;75.42;99249.81;3544348;40;20050;-70
2021/07/19 03:39:33;;;;;;;7.18;5.13;;;;;;;17.24;75.04;99260.34;3543953;40;20356;-71
2021/07/19 03:42:02;;;;;;;6.60;5.32;;;;;;;17.36;74.61;99261.22;3543995;40;20049;-70
2021/07/19 03:44:36;;;;;;;12.02;5.82;;;;;;;17.37;74.42;99265.50;3543574;40;20058;-68
2021/07/19 03:47:09;;;;;;;7.32;4.80;;;;;;;17.39;74.79;99262.59;3544327;40;20057;-70
2021/07/19 03:49:38;;;;;;;8.90;5.13;;;;;;;17.39;74.46;99265.25;3544971;40;20472;-70
2021/07/19 03:52:07;;;;;;;7.65;5.30;;;;;;;17.44;74.25;99266.25;3543628;40;20443;-71
2021/07/19 03:54:35;;;;;;;6.65;5.95;;;;;;;17.47;73.92;99268.47;3544197;40;20047;-70
2021/07/19 03:57:06;;;;;;;5.78;4.78;;;;;;;17.45;73.63;99262.53;3544029;40;20047;-70
2021/07/19 03:59:35;;;;;;;6.03;4.53;;;;;;;17.57;73.96;99267.91;3543808;40;20050;-72
2021/07/19 04:02:12;;;;;;;9.18;4.97;;;;;;;17.64;73.44;99268.66;3544912;40;20061;-71
2021/07/19 04:04:45;;;;;;;7.30;4.78;;;;;;;17.60;73.03;99272.81;3543503;40;20320;-71
2021/07/19 04:07:14;;;;;;;13.63;6.60;;;;;;;17.54;73.10;99271.84;3542929;40;20051;-70
2021/07/19 04:09:46;;;;;;;9.38;6.05;;;;;;;17.31;73.39;99269.91;3541501;40;20404;-70
2021/07/19 04:12:16;;;;;;;10.00;6.90;;;;;;;17.27;74.13;99265.25;3541830;40;20089;-70
2021/07/19 04:14:48;;;;;;;11.40;6.88;;;;;;;17.16;73.86;99264.13;3542217;40;20356;-70
2021/07/19 04:17:18;;;;;;;5.78;5.25;;;;;;;17.13;74.47;99267.22;3542057;40;20047;-70
2021/07/19 04:19:46;;;;;;;9.25;5.13;;;;;;;17.17;74.42;99271.09;3540300;40;20050;-70
2021/07/19 04:22:15;;;;;;;7.65;5.50;;;;;;;17.24;74.75;99269.16;3541772;40;20045;-71
2021/07/19 04:25:05;;;;;;;7.82;5.20;;;;;;;17.39;74.45;99273.28;3540928;40;20407;-70
2021/07/19 04:27:34;;;;;;;6.93;4.85;;;;;;;17.51;74.06;99271.47;3550015;40;20424;-69
2021/07/19 04:30:04;;;;;;;8.45;5.88;;;;;;;17.66;73.27;99268.41;3541944;40;20059;-70
2021/07/19 04:32:49;;;;;;;7.07;5.25;;;;;;;17.76;73.36;99269.53;3541728;40;20043;-70
2021/07/19 04:35:21;;;;;;;6.72;5.15;;;;;;;17.85;72.86;99270.03;3546045;40;20059;-70
2021/07/19 04:37:52;;;;;;;;;;;;;;;17.86;72.71;99265.50;3545870;40;20405;-70
2021/07/19 04:40:23;;;;;;;7.95;5.43;;;;;;;17.88;72.38;99255.38;3542193;40;19989;-70
2021/07/19 04:42:55;;;;;;;7.80;5.45;;;;;;;17.77;72.50;99265.81;3541898;40;20065;-71
2021/07/19 04:45:23;;;;;;;11.00;5.57;;;;;;;17.71;72.40;99266.69;3542090;40;20047;-70
2021/07/19 04:47:52;;;;;;;5.55;5.05;;;;;;;17.55;73.04;99267.31;3541935;40;20077;-70
2021/07/19 04:50:21;;;;;;;9.45;5.75;;;;;;;17.62;73.29;99268.03;3541965;40;20125;-71
2021/07/19 04:53:04;;;;;;;5.50;5.00;;;;;;;17.77;73.30;99271.16;3541933;40;20106;-70
2021/07/19 04:55:34;;;;;;;7.10;5.05;;;;;;;17.87;72.48;99265.25;3542307;40;20083;-71
2021/07/19 04:58:03;;;;;;;6.40;4.60;;;;;;;17.99;72.56;99284.81;3542045;40;20046;-71
2021/07/19 05:00:32;;;;;;;10.32;5.78;;;;;;;18.07;71.43;99272.97;3542103;40;20041;-70
2021/07/19 05:03:04;;;;;;;8.02;5.70;;;;;;;17.89;71.83;99276.53;3540839;40;20404;-71
2021/07/19 05:05:35;;;;;;;7.95;5.88;;;;;;;17.91;72.30;99281.66;3541625;40;20039;-71
2021/07/19 05:08:04;;;;;;;12.20;6.50;;;;;;;18.02;71.94;99283.56;3540876;40;20075;-70
2021/07/19 05:10:32;;;;;;;7.78;6.10;;;;;;;18.01;71.76;99282.75;3540772;40;20053;-71
2021/07/19 05:13:00;;;;;;;10.25;5.60;;;;;;;18.06;71.70;99279.38;3541044;40;20317;-71
2021/07/19 05:15:29;;;;;;;6.75;5.88;;;;;;;18.24;71.63;99275.78;3542501;40;20042;-71
2021/07/19 05:17:57;;;;;;;7.85;5.38;;;;;;;18.42;71.51;99275.69;3542918;40;20083;-71
2021/07/19 05:20:28;;;;;;;7.75;5.68;;;;;;;18.58;70.76;99284.91;3541344;40;20058;-70
2021/07/19 05:22:56;;;;;;;8.25;5.80;;;;;;;18.69;70.26;99272.53;3541858;40;20389;-71
2021/07/19 05:25:25;;;;;;;11.00;6.13;;;;;;;18.74;69.83;99284.25;3541808;40;20051;-70
2021/07/19 05:28:13;;;;;;;9.77;6.45;;;;;;;18.80;69.30;99279.78;3541866;40;20074;-71
2021/07/19 05:30:44;;;;;;;8.43;5.93;;;;;;;18.84;69.55;99278.28;3543602;40;20142;-70
2021/07/19 05:33:13;;;;;;;9.38;5.65;;;;;;;18.86;70.02;99280.72;3542656;40;20043;-71
2021/07/19 05:35:42;;;;;;;6.80;5.43;;;;;;;18.84;69.93;99278.28;3542379;40;20034;-70
2021/07/19 05:38:10;;;;;;;6.68;5.75;;;;;;;18.91;69.13;99281.66;3542196;40;20388;-71
2021/07/19 05:40:40;;;;;;;8.43;7.50;;;;;;;18.86;69.57;99270.84;3541630;40;20141;-71
2021/07/19 05:43:08;;;;;;;7.60;6.78;;;;;;;18.88;69.69;99279.44;3541558;40;20049;-71
2021/07/19 05:45:37;;;;;;;8.57;6.97;;;;;;;18.93;69.44;99276.88;3542510;40;20156;-71
2021/07/19 05:48:06;;;;;;;12.88;5.70;;;;;;;18.99;69.51;99269.75;3541497;40;20038;-71
2021/07/19 05:50:34;;;;;;;8.50;6.50;;;;;;;19.14;69.44;99278.09;3542317;40;20031;-71
2021/07/19 05:53:03;;;;;;;12.52;9.65;;;;;;;19.34;69.18;99277.69;3542354;40;20042;-71
2021/07/19 05:55:31;;;;;;;11.40;9.38;;;;;;;19.54;68.41;99277.28;3549357;40;20059;-71
2021/07/19 05:58:00;;;;;;;9.80;8.55;;;;;;;19.42;67.73;99268.47;3541783;40;20054;-70
2021/07/19 06:00:28;;;;;;;10.50;9.38;;;;;;;19.37;68.14;99276.41;3541243;40;20393;-70
2021/07/19 06:02:55;;;;;;;14.15;9.32;;;;;;;19.49;67.81;99271.84;3542002;40;20051;-71
2021/07/19 06:05:24;;;;;;;9.73;8.05;;;;;;;19.46;67.74;99277.66;3541640;40;20050;-70
2021/07/19 06:07:51;;;;;;;8.30;7.32;;;;;;;19.48;67.54;99281.75;3540599;40;20050;-71
2021/07/19 06:10:21;;;;;;;8.43;7.22;;;;;;;19.57;67.55;99278.69;3540294;40;20408;-71
2021/07/19 06:12:50;;;;;;;7.72;6.72;;;;;;;19.57;67.49;99276.81;3542471;40;20454;-71
2021/07/19 06:15:18;;;;;;;8.18;7.10;;;;;;;19.61;67.13;99286.03;3541990;40;20058;-71
2021/07/19 06:17:45;;;;;;;8.85;7.45;;;;;;;19.69;66.86;99279.47;3541713;40;20495;-71
2021/07/19 06:20:15;;;;;;;10.23;6.70;;;;;;;19.83;66.97;99279.97;3541647;40;20435;-71
2021/07/19 06:22:45;;;;;;;10.70;6.80;;;;;;;19.87;66.71;99278.44;3540858;40;20062;-71
2021/07/19 06:25:15;;;;;;;7.95;6.75;;;;;;;19.88;66.40;99282.75;3541775;40;20058;-71
2021/07/19 06:27:44;;;;;;;7.55;6.68;;;;;;;19.89;66.46;99279.84;3541856;40;20163;-71
2021/07/19 06:30:14;;;;;;;7.88;7.07;;;;;;;19.92;66.48;99294.63;3540863;40;20046;-70
2021/07/19 06:32:42;;;;;;;7.00;6.28;;;;;;;19.97;66.38;99290.19;3541040;40;20026;-71
2021/07/19 06:35:11;;;;;;;8.73;7.72;;;;;;;20.07;66.34;99284.16;3540371;40;20041;-71
2021/07/19 06:37:40;;;;;;;9.25;6.97;;;;;;;20.11;66.07;99279.94;3541022;40;20460;-71
2021/07/19 06:40:11;;;;;;;9.50;6.80;;;;;;;20.18;66.01;99282.47;3541501;40;20400;-71
2021/07/19 06:42:39;;;;;;;8.05;7.10;;;;;;;20.31;65.80;99281.34;3541571;40;20050;-71
2021/07/19 06:45:10;;;;;;;7.20;6.50;;;;;;;20.45;65.44;99278.09;3540069;40;20066;-70
2021/07/19 06:47:39;;;;;;;7.70;7.00;;;;;;;20.54;64.91;99281.19;3539373;40;20090;-71
2021/07/19 06:50:10;;;;;;;7.30;6.68;;;;;;;20.53;64.37;99280.38;3540422;40;20444;-71
2021/07/19 06:52:39;;;;;;;7.30;6.55;;;;;;;20.54;64.62;99281.19;3540795;40;20050;-71
2021/07/19 06:55:10;;;;;;;7.80;6.22;;;;;;;20.60;64.79;99284.75;3540478;40;20058;-71
2021/07/19 06:57:38;;;;;;;7.55;5.63;;;;;;;20.61;64.60;99283.69;3541208;40;20054;-71
2021/07/19 07:00:11;;;;;;;10.05;7.03;;;;;;;20.74;64.58;99267.25;3540963;40;20054;-71
2021/07/19 07:02:38;;;;;;;10.73;8.23;;;;;;;20.88;64.39;99268.50;3541474;40;20145;-71
2021/07/19 07:05:08;;;;;;;12.00;6.63;;;;;;;20.92;63.42;99266.94;3541284;40;20079;-70
2021/07/19 07:07:36;;;;;;;8.98;7.72;;;;;;;20.90;63.99;99271.78;3540760;40;20137;-72
2021/07/19 07:10:05;;;;;;;9.70;6.78;;;;;;;21.08;63.07;99275.22;3541063;40;20062;-71
2021/07/19 07:12:33;;;;;;;9.90;7.82;;;;;;;21.07;63.00;99269.03;3541389;40;20062;-71
2021/07/19 07:15:01;;;;;;;7.50;5.95;;;;;;;21.05;63.46;99259.59;3542874;40;20034;-71
2021/07/19 07:17:30;;;;;;;7.22;6.00;;;;;;;21.12;63.63;99257.53;3543197;40;20026;-71
2021/07/19 07:19:58;;;;;;;8.43;7.53;;;;;;;21.23;63.31;99261.97;3540880;40;20116;-71
2021/07/19 07:22:26;;;;;;;8.32;7.28;;;;;;;21.40;62.65;99251.16;3541243;40;20051;-70
2021/07/19 07:24:54;;;;;;;8.35;5.80;;;;;;;21.42;62.66;99255.22;3541848;40;20059;-71
2021/07/19 07:27:23;;;;;;;8.88;6.35;;;;;;;21.51;62.91;99253.72;3542088;40;20297;-71
2021/07/19 07:29:52;;;;;;;8.32;6.65;;;;;;;21.66;62.52;99247.66;3542216;40;20399;-71
2021/07/19 07:32:20;;;;;;;8.80;5.63;;;;;;;21.81;61.97;99244.31;3542397;40;20061;-71
2021/07/19 07:34:49;;;;;;;9.75;5.50;;;;;;;21.83;61.27;99244.84;3540454;40;20405;-71
2021/07/19 07:37:17;;;;;;;7.00;6.30;;;;;;;22.08;60.84;99243.44;3540847;40;20396;-70
2021/07/19 07:39:46;;;;;;;9.15;8.13;;;;;;;22.16;60.63;99246.50;3541727;40;20054;-71
2021/07/19 07:42:14;;;;;;;8.02;5.40;;;;;;;22.28;60.14;99243.63;3540898;40;20054;-71
2021/07/19 07:44:42;;;;;;;6.35;4.50;;;;;;;22.19;59.39;99239.81;3542814;40;20063;-70
2021/07/19 07:47:10;;;;;;;8.40;5.57;;;;;;;22.19;59.29;99242.50;3542163;40;20336;-70
2021/07/19 07:49:39;;;;;;;6.53;5.07;;;;;;;22.16;59.69;99240.31;3542857;40;20065;-71
2021/07/19 07:52:09;;;;;;;7.97;4.95;;;;;;;22.06;60.00;99237.53;3544569;40;20057;-71
2021/07/19 07:54:38;;;;;;;6.57;4.82;;;;;;;22.16;59.75;99245.69;3544312;40;20051;-71
2021/07/19 07:57:06;;;;;;;8.88;4.47;;;;;;;22.28;59.40;99245.53;3544725;40;20090;-71
2021/07/19 07:59:34;;;;;;;10.90;4.85;;;;;;;22.33;59.21;99240.16;3543112;40;20104;-71
2021/07/19 08:02:02;;;;;;;8.07;4.47;;;;;;;22.45;59.51;99249.72;3544391;40;20054;-71
2021/07/19 08:04:31;;;;;;;9.27;5.03;;;;;;;22.64;58.64;99244.69;3544131;40;20057;-71
2021/07/19 08:07:00;;;;;;;13.48;4.72;;;;;;;22.89;57.87;99244.00;3544398;40;20348;-71
2021/07/19 08:09:30;;;;;;;7.53;5.00;;;;;;;22.95;58.14;99242.19;3543873;40;20035;-71
2021/07/19 08:11:59;;;;;;;7.22;4.72;;;;;;;23.15;57.03;99236.88;3544571;40;20061;-71
2021/07/19 08:14:28;;;;;;;7.57;4.68;;;;;;;23.22;55.99;99233.94;3544427;40;20122;-72
2021/07/19 08:16:55;;;;;;;6.38;4.00;;;;;;;23.19;56.78;99226.38;3544146;40;20050;-71
2021/07/19 08:19:28;;;;;;;7.35;4.80;;;;;;;23.35;55.65;99228.06;3542309;40;20042;-70
2021/07/19 08:21:56;;;;;;;5.90;4.20;;;;;;;23.40;54.91;99233.44;3543523;40;20051;-70
2021/07/19 08:24:24;;;;;;;7.70;4.32;;;;;;;23.38;56.31;99219.41;3542540;40;20538;-72
2021/07/19 08:26:53;;;;;;;6.55;4.55;;;;;;;23.57;54.84;99219.72;3551989;40;20420;-72
2021/07/19 08:29:21;;;;;;;5.63;4.30;;;;;;;23.70;54.30;99223.81;3543644;40;20042;-72
2021/07/19 08:31:48;;;;;;;6.82;3.95;;;;;;;23.76;54.34;99222.75;3544493;40;20300;-72
2021/07/19 08:34:16;;;;;;;6.40;3.80;;;;;;;23.86;52.84;99219.25;3543343;40;20397;-72
2021/07/19 08:36:44;;;;;;;4.57;3.42;;;;;;;23.79;51.76;99227.59;3543556;40;20047;-72
2021/07/19 08:39:12;;;;;;;5.05;3.90;;;;;;;23.70;52.78;99224.63;3543791;40;20172;-72
2021/07/19 08:41:40;;;;;;;6.57;4.10;;;;;;;23.80;52.92;99225.69;3543043;40;20385;-72
2021/07/19 08:44:10;;;;;;;5.97;3.95;;;;;;;23.91;52.85;99221.94;3544491;40;20357;-72
2021/07/19 08:46:40;;;;;;;4.90;3.20;;;;;;;23.92;52.84;99212.75;3544321;40;20382;-72
2021/07/19 08:49:09;;;;;;;6.03;3.70;;;;;;;23.92;51.87;99220.84;3544117;40;20051;-72
2021/07/19 08:51:40;;;;;;;5.43;3.40;;;;;;;23.93;51.69;99211.69;3546538;40;20474;-71
2021/07/19 08:54:09;;;;;;;4.75;3.80;;;;;;;23.94;51.47;99207.91;3547679;40;20301;-72
2021/07/19 08:56:39;;;;;;;4.05;3.67;;;;;;;24.07;51.95;99204.66;3546475;40;20386;-72
2021/07/19 08:59:09;;;;;;;7.75;3.75;;;;;;;24.25;51.41;99203.31;3546187;40;20333;-72
2021/07/19 09:01:40;;;;;;;7.15;3.95;;;;;;;24.10;52.09;99206.81;3551571;40;20422;-71
2021/07/19 09:04:10;;;;;;;5.60;3.50;;;;;;;23.93;52.04;99209.00;3544234;40;20137;-71
2021/07/19 09:06:40;;;;;;;4.75;3.17;;;;;;;23.91;51.49;99205.75;3544244;40;20051;-71
2021/07/19 09:09:08;;;;;;;5.68;3.28;;;;;;;24.04;51.20;99193.59;3542753;40;20305;-70
2021/07/19 09:11:36;;;;;;;6.00;4.60;;;;;;;24.25;50.77;99197.06;3542070;40;20499;-72
2021/07/19 09:14:06;;;;;;;5.05;3.97;;;;;;;24.38;50.57;99194.66;3542079;40;20035;-71
2021/07/19 09:16:42;;;;;;;5.10;3.58;;;;;;;24.33;51.12;99199.22;3543255;40;20390;-71
2021/07/19 09:19:12;;;;;;;5.47;3.35;;;;;;;24.38;50.44;99196.56;3543699;40;20035;-73
2021/07/19 09:21:42;;;;;;;4.53;3.67;;;;;;;24.30;50.61;99189.78;3544213;40;20062;-72
2021/07/19 09:24:14;;;;;;;5.35;3.33;;;;;;;24.47;49.72;99189.50;3543914;40;20041;-70
2021/07/19 09:26:43;;;;;;;7.05;3.65;;;;;;;24.66;49.17;99193.22;3543628;40;20043;-71
2021/07/19 09:29:13;;;;;;;4.15;3.67;;;;;;;24.68;48.84;99180.25;3550018;40;20408;-71
2021/07/19 09:31:44;;;;;;;5.05;3.38;;;;;;;24.68;48.89;99184.84;3543273;40;20035;-71
2021/07/19 09:34:13;;;;;;;6.18;3.50;;;;;;;24.66;48.87;99177.00;3542958;40;20398;-71
2021/07/19 09:36:55;;;;;;;9.38;3.72;;;;;;;24.75;48.45;99177.25;3550538;40;20027;-71
2021/07/19 09:39:24;;;;;;;8.13;3.20;;;;;;;24.75;48.99;99174.53;3542808;40;20081;-71
2021/07/19 09:41:51;;;;;;;4.30;3.40;;;;;;;24.92;47.16;99175.00;3543075;40;20043;-70
2021/07/19 09:44:24;;;;;;;8.68;4.18;;;;;;;24.98;48.27;99170.38;3542988;40;20031;-71
2021/07/19 09:46:59;;;;;;;4.82;3.67;;;;;;;24.70;49.01;99174.56;3542592;40;20043;-70
2021/07/19 09:49:30;;;;;;;5.03;3.50;;;;;;;24.52;49.98;99173.25;3541948;40;20031;-70
2021/07/19 09:51:59;;;;;;;4.38;3.58;;;;;;;24.62;49.64;99167.03;3543152;40;20075;-70
2021/07/19 09:54:38;;;;;;;4.10;3.50;;;;;;;24.84;49.42;99175.59;3543494;40;20376;-70
2021/07/19 09:57:07;;;;;;;4.00;3.40;;;;;;;24.85;49.27;99170.97;3543727;40;20019;-72
2021/07/19 09:59:38;;;;;;;6.28;3.65;;;;;;;24.61;50.06;99168.91;3542487;40;20388;-73
2021/07/19 10:02:09;;;;;;;8.32;3.72;;;;;;;24.45;50.45;99172.75;3543121;40;20080;-72
2021/07/19 10:04:44;;;;;;;6.85;3.33;;;;;;;24.42;50.66;99174.13;3543010;40;20328;-72
2021/07/19 10:07:22;;;;;;;4.80;3.63;;;;;;;24.39;50.19;99158.44;3541854;40;20404;-73
2021/07/19 10:09:50;;;;;;;6.32;3.72;;;;;;;24.43;50.11;99161.41;3543131;40;20031;-72
2021/07/19 10:12:18;;;;;;;4.32;3.28;;;;;;;24.50;49.80;99159.22;3542605;40;20057;-71
2021/07/19 10:14:48;;;;;;;4.82;3.50;;;;;;;24.48;50.28;99158.69;3541481;40;20027;-71
2021/07/19 10:17:18;;;;;;;7.22;3.42;;;;;;;24.18;50.72;99154.94;3541563;40;20042;-70
2021/07/19 10:19:46;;;;;;;5.28;3.70;;;;;;;24.18;51.07;99160.34;3541531;40;20113;-71
2021/07/19 10:22:14;;;;;;;5.65;3.90;;;;;;;24.30;51.06;99156.56;3541770;40;20058;-71
2021/07/19 10:24:43;;;;;;;7.40;3.90;;;;;;;24.48;49.58;99155.19;3541468;40;20047;-70
2021/07/19 10:27:13;;;;;;;4.57;3.60;;;;;;;24.54;49.30;99157.59;3540595;40;20049;-70
2021/07/19 10:29:44;;;;;;;4.50;3.22;;;;;;;24.81;49.13;99156.41;3540317;40;20039;-71
2021/07/19 10:32:12;;;;;;;5.55;3.55;;;;;;;24.83;48.86;99155.03;3541494;40;20031;-71
2021/07/19 10:34:43;;;;;;;4.88;3.75;;;;;;;24.93;48.63;99151.47;3540994;40;20034;-72
2021/07/19 10:37:19;;;;;;;5.55;3.50;;;;;;;24.81;48.70;99151.78;3542468;40;20031;-72
2021/07/19 10:39:52;;;;;;;4.40;3.83;;;;;;;24.91;48.63;99148.25;3540823;40;20321;-72
2021/07/19 10:42:22;;;;;;;6.22;3.40;;;;;;;25.01;48.14;99144.69;3541669;40;20030;-72
2021/07/19 10:44:50;;;;;;;6.03;4.03;;;;;;;25.04;47.32;99144.94;3541786;40;20129;-72
2021/07/19 10:47:21;;;;;;;5.55;3.17;;;;;;;24.93;47.82;99136.06;3541732;40;20413;-72
2021/07/19 10:49:58;;;;;;;4.55;3.67;;;;;;;24.82;47.82;99141.78;3541645;40;20058;-72
2021/07/19 10:52:31;;;;;;;6.82;3.63;;;;;;;24.83;47.85;99133.41;3541633;40;20027;-72
2021/07/19 10:55:01;;;;;;;12.33;4.17;;;;;;;24.96;47.83;99130.09;3541437;40;20057;-72
2021/07/19 10:57:36;;;;;;;5.82;4.13;;;;;;;25.17;47.46;99125.41;3540820;40;20034;-72
2021/07/19 11:00:07;;;;;;;4.95;3.50;;;;;;;25.27;46.58;99118.28;3540614;40;20054;-72
2021/07/19 11:02:35;;;;;;;4.78;3.35;;;;;;;25.26;46.08;99120.19;3540666;40;20046;-70
2021/07/19 11:05:06;;;;;;;3.42;3.13;;;;;;;25.28;45.42;99122.63;3540731;40;20030;-71
2021/07/19 11:07:40;;;;;;;7.97;3.30;;;;;;;25.17;45.96;99124.59;3541232;40;20038;-72
2021/07/19 11:10:18;;;;;;;5.85;3.25;;;;;;;25.40;45.63;99128.50;3540872;40;20027;-72
2021/07/19 11:12:50;;;;;;;5.68;3.47;;;;;;;25.32;45.63;99121.78;3541176;40;20401;-72
2021/07/19 11:15:21;;;;;;;4.38;3.00;;;;;;;25.34;45.34;99126.91;3541421;40;20031;-71
2021/07/19 11:17:49;;;;;;;5.72;3.50;;;;;;;25.32;45.20;99127.22;3540347;40;20045;-71
2021/07/19 11:20:19;;;;;;;5.68;3.10;;;;;;;25.37;44.15;99116.34;3540043;40;20365;-71
2021/07/19 11:22:47;;;;;;;4.53;3.00;;;;;;;25.39;43.89;99122.28;3540880;40;20027;-71
2021/07/19 11:25:17;;;;;;;3.83;2.60;;;;;;;25.45;43.89;99117.63;3541228;40;20027;-72
2021/07/19 11:27:48;;;;;;;4.22;3.28;;;;;;;25.45;44.06;99113.03;3540113;40;20050;-72
2021/07/19 11:30:21;;;;;;;5.97;3.35;;;;;;;25.35;44.18;99126.66;3540781;40;20042;-71
2021/07/19 11:32:50;;;;;;;3.33;3.03;;;;;;;25.38;43.60;99120.66;3540694;40;20027;-72
2021/07/19 11:35:21;;;;;;;6.90;3.13;;;;;;;25.45;44.17;99123.84;3513901;40;1106430;-72
2021/07/19 11:37:50;;;;;;;4.22;2.92;;;;;;;25.47;42.88;99118.16;3540377;40;20133;-74
2021/07/19 11:40:29;;;;;;;6.22;3.20;;;;;;;25.68;42.66;99116.09;3540917;40;20110;-72
2021/07/19 11:43:08;;;;;;;4.28;3.20;;;;;;;25.65;42.33;99111.25;3541001;40;20039;-72
2021/07/19 11:45:40;;;;;;;4.68;3.15;;;;;;;25.77;42.05;99110.88;3542777;40;20031;-72
2021/07/19 11:48:08;;;;;;;4.93;3.30;;;;;;;25.68;42.00;99108.78;3543601;40;20035;-72
2021/07/19 11:50:38;;;;;;;5.45;3.17;;;;;;;25.80;41.79;99111.16;3542596;40;20322;-72